sensor_id;sensor_type;location;lat;lon;timestamp;pressure;altitude;pressure_sealevel;temperature;humidity
6680;BME280;3376;42.664;23.346;2023-02-21T00:02:42;94929.69;;;6.09;81.59
6680;BME280;3376;42.664;23.346;2023-02-21T00:05:26;94904.78;;;6.00;82.49
6680;BME280;3376;42.664;23.346;2023-02-21T00:08:10;94888.56;;;5.90;81.92
6680;BME280;3376;42.664;23.346;2023-02-21T00:10:54;94931.00;;;6.23;80.82
6680;BME280;3376;42.664;23.346;2023-02-21T00:13:39;94926.81;;;6.22;81.72
6680;BME280;3376;42.664;23.346;2023-02-21T00:16:24;94923.47;;;6.02;82.32
6680;BME280;3376;42.664;23.346;2023-02-21T00:19:08;94926.75;;;5.94;82.24
6680;BME280;3376;42.664;23.346;2023-02-21T00:21:53;94929.72;;;6.00;81.78
6680;BME280;3376;42.664;23.346;2023-02-21T00:24:37;94901.41;;;5.90;81.93
6680;BME280;3376;42.664;23.346;2023-02-21T00:27:23;94916.13;;;6.07;81.86
6680;BME280;3376;42.664;23.346;2023-02-21T00:30:10;94918.03;;;6.05;81.92
6680;BME280;3376;42.664;23.346;2023-02-21T00:32:54;94904.25;;;6.06;81.66
6680;BME280;3376;42.664;23.346;2023-02-21T00:35:39;94913.31;;;5.81;82.13
6680;BME280;3376;42.664;23.346;2023-02-21T00:38:22;94891.66;;;5.74;82.57
6680;BME280;3376;42.664;23.346;2023-02-21T00:41:06;94898.44;;;5.75;82.71
6680;BME280;3376;42.664;23.346;2023-02-21T00:43:51;94877.75;;;5.77;83.05
6680;BME280;3376;42.664;23.346;2023-02-21T00:46:36;94893.56;;;5.91;82.12
6680;BME280;3376;42.664;23.346;2023-02-21T00:49:20;94897.88;;;6.01;82.44
6680;BME280;3376;42.664;23.346;2023-02-21T00:52:05;94895.88;;;5.94;82.49
6680;BME280;3376;42.664;23.346;2023-02-21T00:54:49;94889.22;;;6.11;82.05
6680;BME280;3376;42.664;23.346;2023-02-21T00:57:33;94888.91;;;6.14;81.90
6680;BME280;3376;42.664;23.346;2023-02-21T01:00:18;94879.03;;;6.19;81.51
6680;BME280;3376;42.664;23.346;2023-02-21T01:03:05;94880.38;;;6.14;81.25
6680;BME280;3376;42.664;23.346;2023-02-21T01:05:50;94870.13;;;6.04;81.03
6680;BME280;3376;42.664;23.346;2023-02-21T01:08:34;94876.63;;;5.98;81.91
6680;BME280;3376;42.664;23.346;2023-02-21T01:11:20;94860.44;;;5.88;82.81
6680;BME280;3376;42.664;23.346;2023-02-21T01:14:06;94870.72;;;5.88;83.19
6680;BME280;3376;42.664;23.346;2023-02-21T01:16:50;94854.06;;;5.73;83.09
6680;BME280;3376;42.664;23.346;2023-02-21T01:19:36;94839.34;;;5.75;83.19
6680;BME280;3376;42.664;23.346;2023-02-21T01:22:20;94838.25;;;5.68;82.96
6680;BME280;3376;42.664;23.346;2023-02-21T01:25:05;94844.88;;;5.71;83.85
6680;BME280;3376;42.664;23.346;2023-02-21T01:27:49;94812.31;;;5.62;83.13
6680;BME280;3376;42.664;23.346;2023-02-21T01:30:34;94809.56;;;5.73;82.92
6680;BME280;3376;42.664;23.346;2023-02-21T01:33:18;94843.91;;;5.81;82.72
6680;BME280;3376;42.664;23.346;2023-02-21T01:36:05;94840.44;;;5.82;83.21
6680;BME280;3376;42.664;23.346;2023-02-21T01:38:49;94838.75;;;5.81;82.83
6680;BME280;3376;42.664;23.346;2023-02-21T01:41:33;94826.19;;;5.78;83.26
6680;BME280;3376;42.664;23.346;2023-02-21T01:44:30;94823.34;;;5.81;82.79
6680;BME280;3376;42.664;23.346;2023-02-21T01:47:15;94838.66;;;5.92;82.59
6680;BME280;3376;42.664;23.346;2023-02-21T01:50:01;94825.94;;;5.91;82.52
6680;BME280;3376;42.664;23.346;2023-02-21T01:52:48;94802.53;;;5.75;82.36
6680;BME280;3376;42.664;23.346;2023-02-21T01:55:33;94818.19;;;5.81;82.26
6680;BME280;3376;42.664;23.346;2023-02-21T01:58:20;94813.63;;;5.75;82.95
6680;BME280;3376;42.664;23.346;2023-02-21T02:01:06;94791.75;;;5.52;82.89
6680;BME280;3376;42.664;23.346;2023-02-21T02:03:51;94780.81;;;5.50;82.80
6680;BME280;3376;42.664;23.346;2023-02-21T02:06:35;94781.19;;;5.55;82.51
6680;BME280;3376;42.664;23.346;2023-02-21T02:09:21;94802.53;;;5.84;82.71
6680;BME280;3376;42.664;23.346;2023-02-21T02:12:17;94805.91;;;5.94;81.37
6680;BME280;3376;42.664;23.346;2023-02-21T02:15:11;94799.41;;;5.90;82.09
6680;BME280;3376;42.664;23.346;2023-02-21T02:17:53;94801.69;;;5.93;82.71
6680;BME280;3376;42.664;23.346;2023-02-21T02:20:37;94792.50;;;5.81;82.70
6680;BME280;3376;42.664;23.346;2023-02-21T02:26:47;94796.03;;;5.80;82.51
6680;BME280;3376;42.664;23.346;2023-02-21T02:29:47;94797.94;;;5.78;83.31
6680;BME280;3376;42.664;23.346;2023-02-21T02:32:33;94786.09;;;6.05;81.47
6680;BME280;3376;42.664;23.346;2023-02-21T02:35:08;94774.31;;;6.02;81.09
6680;BME280;3376;42.664;23.346;2023-02-21T02:37:45;94773.78;;;6.08;81.66
6680;BME280;3376;42.664;23.346;2023-02-21T02:40:21;94788.59;;;6.24;80.90
6680;BME280;3376;42.664;23.346;2023-02-21T02:43:00;94782.16;;;6.10;81.04
6680;BME280;3376;42.664;23.346;2023-02-21T02:45:32;94785.97;;;5.96;83.34
6680;BME280;3376;42.664;23.346;2023-02-21T02:48:06;94765.19;;;5.71;82.09
6680;BME280;3376;42.664;23.346;2023-02-21T02:50:38;94778.16;;;5.88;81.53
6680;BME280;3376;42.664;23.346;2023-02-21T02:53:05;94772.63;;;5.93;81.69
6680;BME280;3376;42.664;23.346;2023-02-21T02:55:38;94784.94;;;5.89;81.94
6680;BME280;3376;42.664;23.346;2023-02-21T02:58:08;94786.69;;;5.79;81.91
6680;BME280;3376;42.664;23.346;2023-02-21T03:00:39;94789.66;;;5.84;81.88
6680;BME280;3376;42.664;23.346;2023-02-21T03:03:22;94774.13;;;5.76;81.75
6680;BME280;3376;42.664;23.346;2023-02-21T03:06:12;94779.53;;;5.73;81.98
6680;BME280;3376;42.664;23.346;2023-02-21T03:08:50;94780.34;;;5.83;81.87
6680;BME280;3376;42.664;23.346;2023-02-21T03:11:20;94780.03;;;5.96;81.76
6680;BME280;3376;42.664;23.346;2023-02-21T03:13:53;94789.91;;;6.01;81.34
6680;BME280;3376;42.664;23.346;2023-02-21T03:16:23;94781.66;;;5.97;80.38
6680;BME280;3376;42.664;23.346;2023-02-21T03:18:56;94760.56;;;5.93;80.72
6680;BME280;3376;42.664;23.346;2023-02-21T03:21:28;94780.50;;;6.19;79.96
6680;BME280;3376;42.664;23.346;2023-02-21T03:23:58;94772.00;;;6.09;79.91
6680;BME280;3376;42.664;23.346;2023-02-21T03:26:27;94779.06;;;6.07;79.66
6680;BME280;3376;42.664;23.346;2023-02-21T03:28:55;94779.38;;;5.94;80.24
6680;BME280;3376;42.664;23.346;2023-02-21T03:31:28;94777.75;;;5.93;80.47
6680;BME280;3376;42.664;23.346;2023-02-21T03:33:56;94736.16;;;5.70;81.27
6680;BME280;3376;42.664;23.346;2023-02-21T03:36:24;94765.19;;;5.80;80.50
6680;BME280;3376;42.664;23.346;2023-02-21T03:38:51;94770.63;;;5.68;81.74
6680;BME280;3376;42.664;23.346;2023-02-21T03:41:18;94759.28;;;5.70;81.97
6680;BME280;3376;42.664;23.346;2023-02-21T03:43:44;94754.91;;;5.71;81.37
6680;BME280;3376;42.664;23.346;2023-02-21T03:46:11;94770.91;;;5.65;82.44
6680;BME280;3376;42.664;23.346;2023-02-21T03:48:38;94761.13;;;5.78;81.39
6680;BME280;3376;42.664;23.346;2023-02-21T03:51:05;94773.03;;;5.88;81.04
6680;BME280;3376;42.664;23.346;2023-02-21T03:53:33;94764.94;;;5.83;80.79
6680;BME280;3376;42.664;23.346;2023-02-21T03:55:59;94784.28;;;5.87;81.20
6680;BME280;3376;42.664;23.346;2023-02-21T03:58:26;94766.28;;;5.87;80.87
6680;BME280;3376;42.664;23.346;2023-02-21T04:00:53;94788.97;;;6.02;80.97
6680;BME280;3376;42.664;23.346;2023-02-21T04:03:20;94778.00;;;6.00;81.30
6680;BME280;3376;42.664;23.346;2023-02-21T04:05:46;94780.13;;;6.04;81.17
6680;BME280;3376;42.664;23.346;2023-02-21T04:08:13;94778.34;;;6.14;80.69
6680;BME280;3376;42.664;23.346;2023-02-21T04:10:42;94772.03;;;5.99;80.73
6680;BME280;3376;42.664;23.346;2023-02-21T04:13:08;94770.97;;;6.02;80.07
6680;BME280;3376;42.664;23.346;2023-02-21T04:15:35;94790.25;;;6.15;79.61
6680;BME280;3376;42.664;23.346;2023-02-21T04:18:02;94740.41;;;5.79;79.81
6680;BME280;3376;42.664;23.346;2023-02-21T04:20:29;94804.09;;;6.05;80.16
6680;BME280;3376;42.664;23.346;2023-02-21T04:22:56;94795.63;;;5.94;80.84
6680;BME280;3376;42.664;23.346;2023-02-21T04:25:22;94795.06;;;5.81;81.22
6680;BME280;3376;42.664;23.346;2023-02-21T04:27:50;94794.81;;;5.84;80.80
6680;BME280;3376;42.664;23.346;2023-02-21T04:30:18;94806.38;;;6.08;79.84
6680;BME280;3376;42.664;23.346;2023-02-21T04:32:45;94815.69;;;6.09;79.73
6680;BME280;3376;42.664;23.346;2023-02-21T04:35:11;94808.31;;;5.96;79.75
6680;BME280;3376;42.664;23.346;2023-02-21T04:37:38;94796.31;;;5.77;80.97
6680;BME280;3376;42.664;23.346;2023-02-21T04:40:06;94810.09;;;5.76;81.59
6680;BME280;3376;42.664;23.346;2023-02-21T04:42:33;94820.66;;;5.64;82.52
6680;BME280;3376;42.664;23.346;2023-02-21T04:45:01;94805.03;;;5.38;82.20
6680;BME280;3376;42.664;23.346;2023-02-21T04:47:28;94806.66;;;5.30;83.06
6680;BME280;3376;42.664;23.346;2023-02-21T04:49:54;94801.41;;;5.31;83.82
6680;BME280;3376;42.664;23.346;2023-02-21T04:52:21;94798.31;;;5.28;83.73
6680;BME280;3376;42.664;23.346;2023-02-21T04:54:48;94803.31;;;5.10;84.96
6680;BME280;3376;42.664;23.346;2023-02-21T04:57:15;94752.66;;;4.74;85.35
6680;BME280;3376;42.664;23.346;2023-02-21T04:59:42;94791.84;;;4.95;85.11
6680;BME280;3376;42.664;23.346;2023-02-21T05:02:10;94771.03;;;4.69;86.39
6680;BME280;3376;42.664;23.346;2023-02-21T05:04:37;94782.34;;;4.76;87.17
6680;BME280;3376;42.664;23.346;2023-02-21T05:07:04;94775.84;;;4.53;87.57
6680;BME280;3376;42.664;23.346;2023-02-21T05:09:31;94755.22;;;4.45;87.64
6680;BME280;3376;42.664;23.346;2023-02-21T05:11:58;94786.94;;;4.54;89.98
6680;BME280;3376;42.664;23.346;2023-02-21T05:14:24;94751.78;;;4.35;88.60
6680;BME280;3376;42.664;23.346;2023-02-21T05:16:51;94761.09;;;4.27;88.58
6680;BME280;3376;42.664;23.346;2023-02-21T05:19:20;94764.94;;;4.61;88.85
6680;BME280;3376;42.664;23.346;2023-02-21T05:21:53;94620.84;;;3.80;89.32
6680;BME280;3376;42.664;23.346;2023-02-21T05:24:19;94752.94;;;4.90;88.06
6680;BME280;3376;42.664;23.346;2023-02-21T05:26:46;94738.19;;;4.92;91.10
6680;BME280;3376;42.664;23.346;2023-02-21T05:29:13;94753.97;;;4.97;89.38
6680;BME280;3376;42.664;23.346;2023-02-21T05:31:39;94776.41;;;5.05;91.08
6680;BME280;3376;42.664;23.346;2023-02-21T05:34:06;94756.56;;;4.97;88.33
6680;BME280;3376;42.664;23.346;2023-02-21T05:36:34;94760.88;;;5.16;87.30
6680;BME280;3376;42.664;23.346;2023-02-21T05:39:02;94751.78;;;5.21;86.18
6680;BME280;3376;42.664;23.346;2023-02-21T05:41:29;94747.16;;;5.44;84.49
6680;BME280;3376;42.664;23.346;2023-02-21T05:43:56;94783.19;;;5.71;84.06
6680;BME280;3376;42.664;23.346;2023-02-21T05:46:24;94770.31;;;5.80;83.69
6680;BME280;3376;42.664;23.346;2023-02-21T05:48:52;94774.56;;;6.09;82.38
6680;BME280;3376;42.664;23.346;2023-02-21T05:51:19;94796.91;;;6.35;82.29
6680;BME280;3376;42.664;23.346;2023-02-21T05:53:47;94787.16;;;6.39;80.82
6680;BME280;3376;42.664;23.346;2023-02-21T05:56:14;94798.59;;;6.71;79.55
6680;BME280;3376;42.664;23.346;2023-02-21T05:58:41;94808.91;;;7.06;77.36
6680;BME280;3376;42.664;23.346;2023-02-21T06:01:08;94816.13;;;7.38;76.24
6680;BME280;3376;42.664;23.346;2023-02-21T06:03:35;94811.69;;;7.48;74.07
6680;BME280;3376;42.664;23.346;2023-02-21T06:06:02;94806.41;;;7.75;75.13
6680;BME280;3376;42.664;23.346;2023-02-21T06:08:29;94813.63;;;7.97;72.06
6680;BME280;3376;42.664;23.346;2023-02-21T06:10:57;94803.75;;;8.18;71.57
6680;BME280;3376;42.664;23.346;2023-02-21T06:13:24;94795.31;;;8.34;71.55
6680;BME280;3376;42.664;23.346;2023-02-21T06:15:50;94818.53;;;8.76;70.20
6680;BME280;3376;42.664;23.346;2023-02-21T06:18:17;94813.72;;;8.89;68.23
6680;BME280;3376;42.664;23.346;2023-02-21T06:20:44;94816.97;;;9.07;68.31
6680;BME280;3376;42.664;23.346;2023-02-21T06:23:11;94795.84;;;9.19;68.37
6680;BME280;3376;42.664;23.346;2023-02-21T06:25:37;94799.25;;;9.36;66.10
6680;BME280;3376;42.664;23.346;2023-02-21T06:28:05;94779.84;;;9.48;64.39
6680;BME280;3376;42.664;23.346;2023-02-21T06:30:32;94816.63;;;10.06;65.20
6680;BME280;3376;42.664;23.346;2023-02-21T06:32:59;94823.13;;;10.26;61.84
6680;BME280;3376;42.664;23.346;2023-02-21T06:35:26;94825.34;;;10.45;61.20
6680;BME280;3376;42.664;23.346;2023-02-21T06:37:52;94836.13;;;10.49;59.39
6680;BME280;3376;42.664;23.346;2023-02-21T06:40:19;94830.53;;;10.29;59.39
6680;BME280;3376;42.664;23.346;2023-02-21T06:42:46;94834.91;;;10.37;59.16
6680;BME280;3376;42.664;23.346;2023-02-21T06:45:14;94839.31;;;10.28;59.21
6680;BME280;3376;42.664;23.346;2023-02-21T06:47:41;94831.06;;;10.01;59.79
6680;BME280;3376;42.664;23.346;2023-02-21T06:50:07;94714.50;;;9.78;59.78
6680;BME280;3376;42.664;23.346;2023-02-21T06:52:34;94828.38;;;11.18;56.43
6680;BME280;3376;42.664;23.346;2023-02-21T06:55:01;94835.66;;;12.05;54.38
6680;BME280;3376;42.664;23.346;2023-02-21T06:57:28;94815.13;;;12.97;51.55
6680;BME280;3376;42.664;23.346;2023-02-21T06:59:55;94809.25;;;13.88;48.46
6680;BME280;3376;42.664;23.346;2023-02-21T07:02:23;94788.66;;;14.48;46.22
6680;BME280;3376;42.664;23.346;2023-02-21T07:04:49;94807.78;;;15.15;45.83
6680;BME280;3376;42.664;23.346;2023-02-21T07:07:16;94804.31;;;16.27;42.42
6680;BME280;3376;42.664;23.346;2023-02-21T07:09:43;94810.75;;;16.38;39.73
6680;BME280;3376;42.664;23.346;2023-02-21T07:12:10;94819.56;;;16.76;40.36
6680;BME280;3376;42.664;23.346;2023-02-21T07:14:37;94816.25;;;17.44;39.45
6680;BME280;3376;42.664;23.346;2023-02-21T07:17:04;94818.13;;;18.24;36.65
6680;BME280;3376;42.664;23.346;2023-02-21T07:19:32;94824.06;;;18.62;36.34
6680;BME280;3376;42.664;23.346;2023-02-21T07:21:59;94816.66;;;18.96;34.77
6680;BME280;3376;42.664;23.346;2023-02-21T07:24:26;94813.84;;;18.54;35.54
6680;BME280;3376;42.664;23.346;2023-02-21T07:26:53;94779.03;;;18.41;34.84
6680;BME280;3376;42.664;23.346;2023-02-21T07:29:20;94803.34;;;18.54;35.48
6680;BME280;3376;42.664;23.346;2023-02-21T07:31:47;94805.91;;;18.61;35.16
6680;BME280;3376;42.664;23.346;2023-02-21T07:34:14;94794.28;;;18.08;35.72
6680;BME280;3376;42.664;23.346;2023-02-21T07:36:42;94807.72;;;17.87;36.68
6680;BME280;3376;42.664;23.346;2023-02-21T07:39:09;94805.59;;;18.02;36.27
6680;BME280;3376;42.664;23.346;2023-02-21T07:41:35;94797.41;;;18.16;36.20
6680;BME280;3376;42.664;23.346;2023-02-21T07:44:02;94778.44;;;17.96;36.04
6680;BME280;3376;42.664;23.346;2023-02-21T07:46:29;94767.78;;;17.67;38.87
6680;BME280;3376;42.664;23.346;2023-02-21T07:48:56;94801.19;;;17.33;39.27
6680;BME280;3376;42.664;23.346;2023-02-21T07:51:26;94791.78;;;17.26;38.04
6680;BME280;3376;42.664;23.346;2023-02-21T07:53:54;94786.97;;;17.16;37.75
6680;BME280;3376;42.664;23.346;2023-02-21T07:56:21;94763.63;;;16.71;37.38
6680;BME280;3376;42.664;23.346;2023-02-21T07:58:48;94787.81;;;16.53;38.02
6680;BME280;3376;42.664;23.346;2023-02-21T08:01:15;94781.22;;;16.11;38.55
6680;BME280;3376;42.664;23.346;2023-02-21T08:03:42;94764.94;;;15.70;39.13
6680;BME280;3376;42.664;23.346;2023-02-21T08:06:09;94790.44;;;15.42;39.78
6680;BME280;3376;42.664;23.346;2023-02-21T08:08:36;94782.84;;;14.93;41.93
6680;BME280;3376;42.664;23.346;2023-02-21T08:11:04;94769.44;;;14.62;42.16
6680;BME280;3376;42.664;23.346;2023-02-21T08:13:31;94762.03;;;13.97;43.02
6680;BME280;3376;42.664;23.346;2023-02-21T08:15:58;94775.75;;;13.85;43.89
6680;BME280;3376;42.664;23.346;2023-02-21T08:18:24;94772.09;;;13.73;44.16
6680;BME280;3376;42.664;23.346;2023-02-21T08:20:52;94759.19;;;13.02;45.99
6680;BME280;3376;42.664;23.346;2023-02-21T08:23:19;94761.50;;;12.46;47.48
6680;BME280;3376;42.664;23.346;2023-02-21T08:25:46;94435.94;;;10.38;47.70
6680;BME280;3376;42.664;23.346;2023-02-21T08:28:16;94776.03;;;12.55;48.06
6680;BME280;3376;42.664;23.346;2023-02-21T08:30:43;94771.47;;;12.28;48.56
6680;BME280;3376;42.664;23.346;2023-02-21T08:33:09;94765.31;;;12.15;49.46
6680;BME280;3376;42.664;23.346;2023-02-21T08:35:36;94761.00;;;12.22;49.97
6680;BME280;3376;42.664;23.346;2023-02-21T08:38:03;94762.06;;;12.27;49.33
6680;BME280;3376;42.664;23.346;2023-02-21T08:40:30;94566.78;;;11.38;49.96
6680;BME280;3376;42.664;23.346;2023-02-21T08:42:58;94757.97;;;13.19;48.08
6680;BME280;3376;42.664;23.346;2023-02-21T08:45:27;94742.88;;;13.77;46.09
6680;BME280;3376;42.664;23.346;2023-02-21T08:47:55;94732.56;;;13.97;45.03
6680;BME280;3376;42.664;23.346;2023-02-21T08:50:23;94767.50;;;14.30;44.32
6680;BME280;3376;42.664;23.346;2023-02-21T08:52:50;94756.91;;;14.38;44.24
6680;BME280;3376;42.664;23.346;2023-02-21T08:55:17;94756.19;;;14.57;43.99
6680;BME280;3376;42.664;23.346;2023-02-21T08:57:47;94768.53;;;14.83;43.22
6680;BME280;3376;42.664;23.346;2023-02-21T09:00:15;94760.50;;;14.84;43.76
6680;BME280;3376;42.664;23.346;2023-02-21T09:02:44;94752.38;;;15.13;43.54
6680;BME280;3376;42.664;23.346;2023-02-21T09:05:15;94706.00;;;15.09;42.87
6680;BME280;3376;42.664;23.346;2023-02-21T09:07:43;94742.84;;;15.47;42.16
6680;BME280;3376;42.664;23.346;2023-02-21T09:10:10;94744.78;;;15.31;41.81
6680;BME280;3376;42.664;23.346;2023-02-21T09:12:37;94736.56;;;15.21;42.50
6680;BME280;3376;42.664;23.346;2023-02-21T09:15:05;94737.91;;;15.04;42.51
6680;BME280;3376;42.664;23.346;2023-02-21T09:17:32;94745.75;;;15.17;42.00
6680;BME280;3376;42.664;23.346;2023-02-21T09:20:01;94752.19;;;15.15;42.47
6680;BME280;3376;42.664;23.346;2023-02-21T09:22:30;94737.53;;;15.20;42.24
6680;BME280;3376;42.664;23.346;2023-02-21T09:24:57;94732.31;;;15.20;42.14
6680;BME280;3376;42.664;23.346;2023-02-21T09:27:24;94728.66;;;14.89;42.31
6680;BME280;3376;42.664;23.346;2023-02-21T09:30:02;94727.28;;;14.99;42.71
6680;BME280;3376;42.664;23.346;2023-02-21T09:32:29;94724.75;;;15.91;41.98
6680;BME280;3376;42.664;23.346;2023-02-21T09:34:56;94728.72;;;16.19;40.33
6680;BME280;3376;42.664;23.346;2023-02-21T09:37:24;94723.75;;;16.75;40.68
6680;BME280;3376;42.664;23.346;2023-02-21T09:39:51;94694.56;;;17.40;37.22
6680;BME280;3376;42.664;23.346;2023-02-21T09:42:18;94714.78;;;17.65;36.90
6680;BME280;3376;42.664;23.346;2023-02-21T09:44:47;94698.78;;;17.73;36.66
6680;BME280;3376;42.664;23.346;2023-02-21T09:47:26;94720.16;;;18.37;36.56
6680;BME280;3376;42.664;23.346;2023-02-21T09:49:58;94710.59;;;19.26;34.56
6680;BME280;3376;42.664;23.346;2023-02-21T09:52:31;94717.00;;;19.01;34.28
6680;BME280;3376;42.664;23.346;2023-02-21T09:55:02;94679.94;;;19.50;35.47
6680;BME280;3376;42.664;23.346;2023-02-21T09:57:33;94685.09;;;19.27;33.36
6680;BME280;3376;42.664;23.346;2023-02-21T09:59:59;94696.34;;;20.10;33.15
6680;BME280;3376;42.664;23.346;2023-02-21T10:02:38;94698.22;;;20.60;32.06
6680;BME280;3376;42.664;23.346;2023-02-21T10:05:17;94686.97;;;21.16;31.32
6680;BME280;3376;42.664;23.346;2023-02-21T10:07:56;94690.69;;;21.93;30.46
6680;BME280;3376;42.664;23.346;2023-02-21T10:10:29;94688.44;;;22.78;29.28
6680;BME280;3376;42.664;23.346;2023-02-21T10:13:02;94681.94;;;23.34;28.51
6680;BME280;3376;42.664;23.346;2023-02-21T10:15:38;94657.53;;;23.53;27.64
6680;BME280;3376;42.664;23.346;2023-02-21T10:18:14;94683.09;;;23.74;27.38
6680;BME280;3376;42.664;23.346;2023-02-21T10:20:49;94638.31;;;23.31;26.85
6680;BME280;3376;42.664;23.346;2023-02-21T10:23:22;94657.84;;;23.30;27.12
6680;BME280;3376;42.664;23.346;2023-02-21T10:25:53;94663.63;;;23.05;26.91
6680;BME280;3376;42.664;23.346;2023-02-21T10:28:23;94653.06;;;22.57;29.19
6680;BME280;3376;42.664;23.346;2023-02-21T10:30:52;94662.16;;;22.88;29.63
6680;BME280;3376;42.664;23.346;2023-02-21T10:33:20;94657.28;;;23.28;27.47
6680;BME280;3376;42.664;23.346;2023-02-21T10:35:47;94652.38;;;23.68;26.86
6680;BME280;3376;42.664;23.346;2023-02-21T10:38:19;94646.84;;;24.06;26.29
6680;BME280;3376;42.664;23.346;2023-02-21T10:40:50;94534.25;;;23.94;25.01
6680;BME280;3376;42.664;23.346;2023-02-21T10:43:21;94629.84;;;25.06;24.24
6680;BME280;3376;42.664;23.346;2023-02-21T10:45:56;94635.63;;;25.03;25.16
6680;BME280;3376;42.664;23.346;2023-02-21T10:48:27;94626.13;;;25.07;25.25
6680;BME280;3376;42.664;23.346;2023-02-21T10:51:06;94618.91;;;24.92;24.10
6680;BME280;3376;42.664;23.346;2023-02-21T10:53:35;94619.72;;;24.93;24.06
6680;BME280;3376;42.664;23.346;2023-02-21T10:56:08;94607.97;;;24.74;24.12
6680;BME280;3376;42.664;23.346;2023-02-21T10:58:35;94604.84;;;23.83;22.27
6680;BME280;3376;42.664;23.346;2023-02-21T11:01:14;94583.28;;;23.65;23.36
6680;BME280;3376;42.664;23.346;2023-02-21T11:03:44;94596.19;;;23.56;22.42
6680;BME280;3376;42.664;23.346;2023-02-21T11:06:23;94592.09;;;23.12;22.33
6680;BME280;3376;42.664;23.346;2023-02-21T11:08:52;94578.53;;;23.03;22.83
6680;BME280;3376;42.664;23.346;2023-02-21T11:11:31;94545.44;;;22.48;23.30
6680;BME280;3376;42.664;23.346;2023-02-21T11:14:20;94574.84;;;22.78;24.35
6680;BME280;3376;42.664;23.346;2023-02-21T11:17:04;94565.47;;;22.92;23.21
6680;BME280;3376;42.664;23.346;2023-02-21T11:19:45;94522.88;;;22.88;22.93
6680;BME280;3376;42.664;23.346;2023-02-21T11:22:12;94567.22;;;23.08;23.21
6680;BME280;3376;42.664;23.346;2023-02-21T11:25:03;94563.75;;;23.34;22.70
6680;BME280;3376;42.664;23.346;2023-02-21T11:27:33;94545.50;;;23.06;23.13
6680;BME280;3376;42.664;23.346;2023-02-21T11:30:02;94553.22;;;22.81;23.84
6680;BME280;3376;42.664;23.346;2023-02-21T11:32:32;94544.81;;;22.89;23.36
6680;BME280;3376;42.664;23.346;2023-02-21T11:35:21;94546.94;;;22.60;23.28
6680;BME280;3376;42.664;23.346;2023-02-21T11:37:52;94536.31;;;22.55;23.42
6680;BME280;3376;42.664;23.346;2023-02-21T11:40:27;94540.47;;;22.51;23.06
6680;BME280;3376;42.664;23.346;2023-02-21T11:43:25;94536.13;;;22.62;23.07
6680;BME280;3376;42.664;23.346;2023-02-21T11:46:03;94509.50;;;22.68;23.65
6680;BME280;3376;42.664;23.346;2023-02-21T11:48:35;94507.38;;;22.65;23.56
6680;BME280;3376;42.664;23.346;2023-02-21T11:51:05;94514.22;;;22.40;23.35
6680;BME280;3376;42.664;23.346;2023-02-21T11:53:38;94521.97;;;22.51;24.88
6680;BME280;3376;42.664;23.346;2023-02-21T11:56:18;94504.16;;;22.37;25.49
6680;BME280;3376;42.664;23.346;2023-02-21T11:58:52;94511.16;;;22.26;23.90
6680;BME280;3376;42.664;23.346;2023-02-21T12:01:26;94464.06;;;22.18;24.78
6680;BME280;3376;42.664;23.346;2023-02-21T12:04:03;94495.06;;;22.28;24.04
6680;BME280;3376;42.664;23.346;2023-02-21T12:06:39;94489.25;;;22.04;24.45
6680;BME280;3376;42.664;23.346;2023-02-21T12:09:11;94488.69;;;21.80;25.41
6680;BME280;3376;42.664;23.346;2023-02-21T12:11:51;94473.03;;;21.74;26.81
6680;BME280;3376;42.664;23.346;2023-02-21T12:14:31;94473.16;;;21.84;27.68
6680;BME280;3376;42.664;23.346;2023-02-21T12:17:11;94476.19;;;22.14;25.34
6680;BME280;3376;42.664;23.346;2023-02-21T12:20:14;94479.38;;;22.16;26.21
6680;BME280;3376;42.664;23.346;2023-02-21T12:22:55;94465.25;;;22.05;27.51
6680;BME280;3376;42.664;23.346;2023-02-21T12:25:30;94457.03;;;22.02;26.11
6680;BME280;3376;42.664;23.346;2023-02-21T12:28:04;94450.91;;;21.96;24.78
6680;BME280;3376;42.664;23.346;2023-02-21T12:31:03;94453.41;;;21.65;25.08
6680;BME280;3376;42.664;23.346;2023-02-21T12:33:42;94444.00;;;21.52;26.80
6680;BME280;3376;42.664;23.346;2023-02-21T12:36:20;94450.78;;;21.86;25.82
6680;BME280;3376;42.664;23.346;2023-02-21T12:38:57;94432.69;;;21.95;25.54
6680;BME280;3376;42.664;23.346;2023-02-21T12:41:47;94442.63;;;22.36;26.13
6680;BME280;3376;42.664;23.346;2023-02-21T12:44:20;94444.50;;;22.41;24.70
6680;BME280;3376;42.664;23.346;2023-02-21T12:46:51;94434.38;;;22.06;25.24
6680;BME280;3376;42.664;23.346;2023-02-21T12:49:23;94419.34;;;22.06;25.92
6680;BME280;3376;42.664;23.346;2023-02-21T12:51:58;94367.13;;;21.60;25.03
6680;BME280;3376;42.664;23.346;2023-02-21T12:54:37;94428.94;;;21.69;25.22
6680;BME280;3376;42.664;23.346;2023-02-21T12:57:10;94422.00;;;21.42;25.57
6680;BME280;3376;42.664;23.346;2023-02-21T12:59:50;94430.97;;;21.41;26.55
6680;BME280;3376;42.664;23.346;2023-02-21T13:02:25;94447.09;;;21.44;26.17
6680;BME280;3376;42.664;23.346;2023-02-21T13:04:59;94424.31;;;21.60;25.79
6680;BME280;3376;42.664;23.346;2023-02-21T13:07:34;94428.31;;;21.62;27.12
6680;BME280;3376;42.664;23.346;2023-02-21T13:10:05;94430.19;;;21.83;27.57
6680;BME280;3376;42.664;23.346;2023-02-21T13:12:42;94435.56;;;21.93;25.96
6680;BME280;3376;42.664;23.346;2023-02-21T13:15:18;94425.38;;;22.02;25.14
6680;BME280;3376;42.664;23.346;2023-02-21T13:17:53;94414.53;;;21.98;25.66
6680;BME280;3376;42.664;23.346;2023-02-21T13:20:24;94408.38;;;22.14;25.25
6680;BME280;3376;42.664;23.346;2023-02-21T13:26:30;94411.38;;;22.01;25.95
6680;BME280;3376;42.664;23.346;2023-02-21T13:29:00;94411.88;;;21.98;25.08
6680;BME280;3376;42.664;23.346;2023-02-21T13:31:33;94404.13;;;22.13;25.95
6680;BME280;3376;42.664;23.346;2023-02-21T13:34:05;94406.81;;;22.18;25.10
6680;BME280;3376;42.664;23.346;2023-02-21T13:36:40;94346.38;;;21.90;24.52
6680;BME280;3376;42.664;23.346;2023-02-21T13:39:12;94363.97;;;22.11;26.30
6680;BME280;3376;42.664;23.346;2023-02-21T13:41:42;94390.16;;;22.45;24.64
6680;BME280;3376;42.664;23.346;2023-02-21T13:44:11;94401.31;;;22.52;24.80
6680;BME280;3376;42.664;23.346;2023-02-21T13:47:02;94392.53;;;22.46;24.78
6680;BME280;3376;42.664;23.346;2023-02-21T13:49:53;94383.34;;;22.49;25.39
6680;BME280;3376;42.664;23.346;2023-02-21T13:52:50;94381.06;;;22.31;24.82
6680;BME280;3376;42.664;23.346;2023-02-21T13:55:27;94383.94;;;22.29;25.86